sensor_id;sensor_type;location;lat;lon;timestamp;pressure;altitude;pressure_sealevel;temperature;humidity
61742;BME280;47650;49.848;9.620;2023-07-30T00:02:25;99033.28;;;19.45;100.00
61742;BME280;47650;49.848;9.620;2023-07-30T00:04:50;99032.63;;;19.56;100.00
61742;BME280;47650;49.848;9.620;2023-07-30T00:07:15;99031.31;;;19.33;100.00
61742;BME280;47650;49.848;9.620;2023-07-30T00:09:40;99020.19;;;19.30;100.00
61742;BME280;47650;49.848;9.620;2023-07-30T00:12:07;99026.75;;;19.34;100.00
61742;BME280;47650;49.848;9.620;2023-07-30T00:14:32;99034.25;;;19.25;100.00
61742;BME280;47650;49.848;9.620;2023-07-30T00:16:58;99039.69;;;19.12;100.00
61742;BME280;47650;49.848;9.620;2023-07-30T00:19:23;99028.25;;;18.91;100.00
61742;BME280;47650;49.848;9.620;2023-07-30T00:21:48;99029.59;;;19.14;100.00
61742;BME280;47650;49.848;9.620;2023-07-30T00:24:14;99021.94;;;19.11;100.00
61742;BME280;47650;49.848;9.620;2023-07-30T00:26:45;99021.88;;;19.24;100.00
61742;BME280;47650;49.848;9.620;2023-07-30T00:29:10;99030.53;;;19.26;100.00
61742;BME280;47650;49.848;9.620;2023-07-30T00:31:35;99026.75;;;19.34;100.00
61742;BME280;47650;49.848;9.620;2023-07-30T00:34:05;99019.78;;;19.26;100.00
61742;BME280;47650;49.848;9.620;2023-07-30T00:36:30;99020.88;;;19.12;99.97
61742;BME280;47650;49.848;9.620;2023-07-30T00:38:55;99017.03;;;19.01;100.00
61742;BME280;47650;49.848;9.620;2023-07-30T00:41:22;99014.72;;;19.05;100.00
61742;BME280;47650;49.848;9.620;2023-07-30T00:43:53;99013.59;;;18.87;100.00
61742;BME280;47650;49.848;9.620;2023-07-30T00:46:20;99040.69;;;18.72;96.69
61742;BME280;47650;49.848;9.620;2023-07-30T00:48:45;99032.75;;;18.97;100.00
61742;BME280;47650;49.848;9.620;2023-07-30T00:51:13;99037.69;;;19.01;98.54
61742;BME280;47650;49.848;9.620;2023-07-30T00:53:38;99026.19;;;18.93;95.87
61742;BME280;47650;49.848;9.620;2023-07-30T00:56:04;99046.72;;;19.13;99.67
61742;BME280;47650;49.848;9.620;2023-07-30T00:58:31;99014.56;;;19.00;100.00
61742;BME280;47650;49.848;9.620;2023-07-30T01:00:56;99038.78;;;19.31;99.53
61742;BME280;47650;49.848;9.620;2023-07-30T01:03:22;99032.97;;;19.34;99.89
61742;BME280;47650;49.848;9.620;2023-07-30T01:05:48;99029.84;;;19.38;100.00
61742;BME280;47650;49.848;9.620;2023-07-30T01:08:14;99056.63;;;19.19;100.00
61742;BME280;47650;49.848;9.620;2023-07-30T01:10:40;99063.19;;;18.78;99.32
61742;BME280;47650;49.848;9.620;2023-07-30T01:13:08;99045.13;;;18.40;100.00
61742;BME280;47650;49.848;9.620;2023-07-30T01:15:36;99074.19;;;18.56;100.00
61742;BME280;47650;49.848;9.620;2023-07-30T01:18:02;99031.72;;;18.33;98.53
61742;BME280;47650;49.848;9.620;2023-07-30T01:20:31;99082.00;;;18.65;99.71
61742;BME280;47650;49.848;9.620;2023-07-30T01:22:58;99085.69;;;18.77;100.00
61742;BME280;47650;49.848;9.620;2023-07-30T01:25:24;99055.78;;;18.67;99.32
61742;BME280;47650;49.848;9.620;2023-07-30T01:27:54;99086.38;;;18.66;94.69
61742;BME280;47650;49.848;9.620;2023-07-30T01:30:27;99083.41;;;18.80;94.95
61742;BME280;47650;49.848;9.620;2023-07-30T01:32:54;99080.66;;;19.07;96.95
61742;BME280;47650;49.848;9.620;2023-07-30T01:35:25;99094.75;;;18.96;96.68
61742;BME280;47650;49.848;9.620;2023-07-30T01:37:52;99090.63;;;19.00;93.98
61742;BME280;47650;49.848;9.620;2023-07-30T01:40:18;99081.34;;;18.89;93.77
61742;BME280;47650;49.848;9.620;2023-07-30T01:42:51;99086.09;;;18.94;92.97
61742;BME280;47650;49.848;9.620;2023-07-30T01:45:16;99063.03;;;19.18;93.97
61742;BME280;47650;49.848;9.620;2023-07-30T01:47:42;99079.69;;;19.33;94.87
61742;BME280;47650;49.848;9.620;2023-07-30T01:50:08;99086.31;;;19.31;93.67
61742;BME280;47650;49.848;9.620;2023-07-30T01:52:33;99074.00;;;19.16;93.86
61742;BME280;47650;49.848;9.620;2023-07-30T01:55:00;99054.13;;;19.24;93.01
61742;BME280;47650;49.848;9.620;2023-07-30T01:57:26;99082.25;;;19.22;94.63
61742;BME280;47650;49.848;9.620;2023-07-30T01:59:52;99079.00;;;19.45;92.06
61742;BME280;47650;49.848;9.620;2023-07-30T02:02:17;99083.41;;;19.32;93.42
61742;BME280;47650;49.848;9.620;2023-07-30T02:04:44;99061.56;;;19.22;92.76
61742;BME280;47650;49.848;9.620;2023-07-30T02:07:10;99077.25;;;19.25;91.83
61742;BME280;47650;49.848;9.620;2023-07-30T02:09:35;99071.94;;;19.12;91.99
61742;BME280;47650;49.848;9.620;2023-07-30T02:12:00;99082.06;;;19.16;91.96
61742;BME280;47650;49.848;9.620;2023-07-30T02:14:26;99072.28;;;19.29;91.39
61742;BME280;47650;49.848;9.620;2023-07-30T02:16:51;99051.91;;;19.46;92.56
61742;BME280;47650;49.848;9.620;2023-07-30T02:19:18;99076.56;;;19.75;92.49
61742;BME280;47650;49.848;9.620;2023-07-30T02:21:44;99070.78;;;19.71;91.17
61742;BME280;47650;49.848;9.620;2023-07-30T02:24:09;99070.69;;;19.53;89.78
61742;BME280;47650;49.848;9.620;2023-07-30T02:26:37;99077.38;;;19.44;90.22
61742;BME280;47650;49.848;9.620;2023-07-30T02:29:03;99073.13;;;19.61;91.29
61742;BME280;47650;49.848;9.620;2023-07-30T02:31:34;99079.66;;;19.79;92.87
61742;BME280;47650;49.848;9.620;2023-07-30T02:33:59;99079.19;;;19.50;90.05
61742;BME280;47650;49.848;9.620;2023-07-30T02:36:24;99081.81;;;19.57;90.70
61742;BME280;47650;49.848;9.620;2023-07-30T02:38:50;99084.44;;;19.77;92.10
61742;BME280;47650;49.848;9.620;2023-07-30T02:41:16;99075.28;;;19.78;90.66
61742;BME280;47650;49.848;9.620;2023-07-30T02:43:41;99064.09;;;19.81;90.38
61742;BME280;47650;49.848;9.620;2023-07-30T02:46:07;99073.03;;;19.81;88.70
61742;BME280;47650;49.848;9.620;2023-07-30T02:48:33;99078.22;;;19.76;89.19
61742;BME280;47650;49.848;9.620;2023-07-30T02:51:00;99084.09;;;19.60;90.36
61742;BME280;47650;49.848;9.620;2023-07-30T02:53:25;99074.84;;;19.49;90.03
61742;BME280;47650;49.848;9.620;2023-07-30T02:55:50;99078.50;;;19.29;92.14
61742;BME280;47650;49.848;9.620;2023-07-30T02:58:17;99071.75;;;19.52;91.82
61742;BME280;47650;49.848;9.620;2023-07-30T03:00:42;99080.88;;;19.44;92.25
61742;BME280;47650;49.848;9.620;2023-07-30T03:03:08;99093.16;;;19.27;93.87
61742;BME280;47650;49.848;9.620;2023-07-30T03:05:34;99088.44;;;19.22;93.97
61742;BME280;47650;49.848;9.620;2023-07-30T03:07:59;99070.38;;;18.91;95.73
61742;BME280;47650;49.848;9.620;2023-07-30T03:10:32;99065.63;;;18.93;95.00
61742;BME280;47650;49.848;9.620;2023-07-30T03:13:01;99097.88;;;19.38;93.55
61742;BME280;47650;49.848;9.620;2023-07-30T03:15:27;99088.81;;;19.26;93.32
61742;BME280;47650;49.848;9.620;2023-07-30T03:17:53;99094.81;;;19.34;92.93
61742;BME280;47650;49.848;9.620;2023-07-30T03:20:26;99069.22;;;19.57;90.94
61742;BME280;47650;49.848;9.620;2023-07-30T03:22:51;99101.13;;;19.47;90.69
61742;BME280;47650;49.848;9.620;2023-07-30T03:25:17;99096.47;;;19.67;90.70
61742;BME280;47650;49.848;9.620;2023-07-30T03:27:42;99101.22;;;19.65;90.39
61742;BME280;47650;49.848;9.620;2023-07-30T03:30:10;99093.47;;;19.50;89.69
61742;BME280;47650;49.848;9.620;2023-07-30T03:32:36;99099.75;;;19.76;88.71
61742;BME280;47650;49.848;9.620;2023-07-30T03:35:02;99099.63;;;19.89;88.84
61742;BME280;47650;49.848;9.620;2023-07-30T03:37:27;99108.25;;;19.66;89.03
61742;BME280;47650;49.848;9.620;2023-07-30T03:39:53;99076.41;;;19.63;88.88
61742;BME280;47650;49.848;9.620;2023-07-30T03:42:20;99112.31;;;19.44;88.84
61742;BME280;47650;49.848;9.620;2023-07-30T03:44:45;99120.31;;;19.57;89.46
61742;BME280;47650;49.848;9.620;2023-07-30T03:47:11;99118.88;;;19.54;88.87
61742;BME280;47650;49.848;9.620;2023-07-30T03:49:36;99103.47;;;19.68;87.54
61742;BME280;47650;49.848;9.620;2023-07-30T03:52:02;99114.22;;;19.68;86.75
61742;BME280;47650;49.848;9.620;2023-07-30T03:54:33;99091.97;;;19.54;86.43
61742;BME280;47650;49.848;9.620;2023-07-30T03:56:59;99125.38;;;19.72;86.43
61742;BME280;47650;49.848;9.620;2023-07-30T03:59:24;99120.63;;;19.74;86.71
61742;BME280;47650;49.848;9.620;2023-07-30T04:01:50;99116.50;;;19.71;87.03
61742;BME280;47650;49.848;9.620;2023-07-30T04:04:15;99128.84;;;19.47;88.75
61742;BME280;47650;49.848;9.620;2023-07-30T04:06:41;99122.56;;;19.99;88.60
61742;BME280;47650;49.848;9.620;2023-07-30T04:09:07;99125.63;;;20.02;86.34
61742;BME280;47650;49.848;9.620;2023-07-30T04:11:34;99128.03;;;20.10;86.52
61742;BME280;47650;49.848;9.620;2023-07-30T04:13:59;99137.59;;;20.06;85.30
61742;BME280;47650;49.848;9.620;2023-07-30T04:16:25;99141.66;;;20.16;86.77
61742;BME280;47650;49.848;9.620;2023-07-30T04:18:50;99137.50;;;20.20;86.36
61742;BME280;47650;49.848;9.620;2023-07-30T04:21:22;99137.94;;;20.17;85.59
61742;BME280;47650;49.848;9.620;2023-07-30T04:23:47;99133.16;;;20.19;86.74
61742;BME280;47650;49.848;9.620;2023-07-30T04:26:13;99134.19;;;20.18;86.42
61742;BME280;47650;49.848;9.620;2023-07-30T04:28:38;99093.25;;;19.84;86.01
61742;BME280;47650;49.848;9.620;2023-07-30T04:31:04;99153.41;;;19.96;84.81
61742;BME280;47650;49.848;9.620;2023-07-30T04:33:29;99136.44;;;19.96;85.11
61742;BME280;47650;49.848;9.620;2023-07-30T04:35:54;99111.66;;;19.87;85.02
61742;BME280;47650;49.848;9.620;2023-07-30T04:38:20;99139.69;;;20.04;84.98
61742;BME280;47650;49.848;9.620;2023-07-30T04:40:51;99142.38;;;20.04;85.20
61742;BME280;47650;49.848;9.620;2023-07-30T04:43:17;99145.44;;;20.08;85.44
61742;BME280;47650;49.848;9.620;2023-07-30T04:45:42;99153.31;;;20.09;85.41
61742;BME280;47650;49.848;9.620;2023-07-30T04:48:08;99146.66;;;20.12;84.41
61742;BME280;47650;49.848;9.620;2023-07-30T04:50:37;99144.59;;;20.14;83.45
61742;BME280;47650;49.848;9.620;2023-07-30T04:53:05;99147.44;;;20.19;82.99
61742;BME280;47650;49.848;9.620;2023-07-30T04:55:30;99120.34;;;19.89;80.54
61742;BME280;47650;49.848;9.620;2023-07-30T04:57:56;99145.94;;;20.23;82.40
61742;BME280;47650;49.848;9.620;2023-07-30T05:00:21;99135.72;;;20.32;82.36
61742;BME280;47650;49.848;9.620;2023-07-30T05:02:53;99149.88;;;20.21;79.75
61742;BME280;47650;49.848;9.620;2023-07-30T05:05:19;99143.97;;;20.12;79.75
61742;BME280;47650;49.848;9.620;2023-07-30T05:07:47;99157.53;;;19.99;80.36
61742;BME280;47650;49.848;9.620;2023-07-30T05:10:12;99164.53;;;20.00;79.48
61742;BME280;47650;49.848;9.620;2023-07-30T05:12:38;99118.34;;;19.78;79.48
61742;BME280;47650;49.848;9.620;2023-07-30T05:15:04;99175.94;;;20.27;78.57
61742;BME280;47650;49.848;9.620;2023-07-30T05:17:30;99150.13;;;20.44;75.91
61742;BME280;47650;49.848;9.620;2023-07-30T05:19:55;99155.97;;;20.60;77.56
61742;BME280;47650;49.848;9.620;2023-07-30T05:22:21;99128.81;;;20.18;76.39
61742;BME280;47650;49.848;9.620;2023-07-30T05:24:56;99157.75;;;20.73;75.99
61742;BME280;47650;49.848;9.620;2023-07-30T05:27:21;99166.06;;;20.71;76.55
61742;BME280;47650;49.848;9.620;2023-07-30T05:29:47;99166.53;;;20.61;77.27
61742;BME280;47650;49.848;9.620;2023-07-30T05:32:12;99169.84;;;20.63;77.13
61742;BME280;47650;49.848;9.620;2023-07-30T05:34:37;99156.25;;;20.52;77.75
61742;BME280;47650;49.848;9.620;2023-07-30T05:37:03;99156.03;;;21.15;75.91
61742;BME280;47650;49.848;9.620;2023-07-30T05:39:29;99175.63;;;20.67;76.01
61742;BME280;47650;49.848;9.620;2023-07-30T05:41:54;99165.56;;;21.18;74.46
61742;BME280;47650;49.848;9.620;2023-07-30T05:44:20;99161.72;;;21.26;73.89
61742;BME280;47650;49.848;9.620;2023-07-30T05:46:45;99179.28;;;21.16;72.98
61742;BME280;47650;49.848;9.620;2023-07-30T05:49:14;99177.03;;;21.13;72.95
61742;BME280;47650;49.848;9.620;2023-07-30T05:51:42;99179.41;;;21.21;73.09
61742;BME280;47650;49.848;9.620;2023-07-30T05:54:07;99169.75;;;21.81;71.78
61742;BME280;47650;49.848;9.620;2023-07-30T05:56:35;99174.59;;;21.42;71.95
61742;BME280;47650;49.848;9.620;2023-07-30T05:59:03;99184.63;;;20.79;74.06
61742;BME280;47650;49.848;9.620;2023-07-30T06:01:28;99153.38;;;21.64;71.58
61742;BME280;47650;49.848;9.620;2023-07-30T06:03:54;99181.94;;;22.14;70.22
61742;BME280;47650;49.848;9.620;2023-07-30T06:06:19;99173.44;;;21.98;71.17
61742;BME280;47650;49.848;9.620;2023-07-30T06:08:52;99149.56;;;22.26;70.00
61742;BME280;47650;49.848;9.620;2023-07-30T06:11:24;99160.41;;;22.61;68.94
61742;BME280;47650;49.848;9.620;2023-07-30T06:13:50;99167.91;;;22.59;69.73
61742;BME280;47650;49.848;9.620;2023-07-30T06:16:17;99162.28;;;22.61;68.34
61742;BME280;47650;49.848;9.620;2023-07-30T06:18:43;99127.16;;;22.49;66.97
61742;BME280;47650;49.848;9.620;2023-07-30T06:21:08;99160.75;;;22.29;67.40
61742;BME280;47650;49.848;9.620;2023-07-30T06:23:35;99137.25;;;22.42;67.62
61742;BME280;47650;49.848;9.620;2023-07-30T06:26:06;99154.06;;;22.67;67.15
61742;BME280;47650;49.848;9.620;2023-07-30T06:28:31;99156.97;;;23.01;66.35
61742;BME280;47650;49.848;9.620;2023-07-30T06:31:04;99151.13;;;22.57;65.78
61742;BME280;47650;49.848;9.620;2023-07-30T06:33:29;99146.13;;;23.25;64.98
61742;BME280;47650;49.848;9.620;2023-07-30T06:35:57;99115.38;;;22.79;63.80
61742;BME280;47650;49.848;9.620;2023-07-30T06:38:28;99159.41;;;23.03;64.24
61742;BME280;47650;49.848;9.620;2023-07-30T06:40:54;99170.09;;;22.15;66.30
61742;BME280;47650;49.848;9.620;2023-07-30T06:43:22;99165.16;;;22.12;67.54
61742;BME280;47650;49.848;9.620;2023-07-30T06:45:47;99123.38;;;22.26;65.69
61742;BME280;47650;49.848;9.620;2023-07-30T06:48:13;99171.69;;;22.46;65.98
61742;BME280;47650;49.848;9.620;2023-07-30T06:50:47;99167.31;;;22.33;66.08
61742;BME280;47650;49.848;9.620;2023-07-30T06:53:13;99186.81;;;22.47;66.24
61742;BME280;47650;49.848;9.620;2023-07-30T06:55:40;99198.75;;;21.37;70.60
61742;BME280;47650;49.848;9.620;2023-07-30T06:58:05;99194.59;;;21.34;70.27
61742;BME280;47650;49.848;9.620;2023-07-30T07:00:31;99201.13;;;21.27;71.66
61742;BME280;47650;49.848;9.620;2023-07-30T07:02:56;99142.03;;;21.74;69.48
61742;BME280;47650;49.848;9.620;2023-07-30T07:05:21;99201.84;;;22.31;67.82
61742;BME280;47650;49.848;9.620;2023-07-30T07:07:46;99208.69;;;21.73;68.71
61742;BME280;47650;49.848;9.620;2023-07-30T07:10:14;99217.69;;;21.97;68.55
61742;BME280;47650;49.848;9.620;2023-07-30T07:12:40;99204.44;;;22.50;67.10
61742;BME280;47650;49.848;9.620;2023-07-30T07:15:06;99190.25;;;22.78;65.58
61742;BME280;47650;49.848;9.620;2023-07-30T07:17:32;99192.59;;;22.09;64.44
61742;BME280;47650;49.848;9.620;2023-07-30T07:19:59;99184.66;;;22.26;62.78
61742;BME280;47650;49.848;9.620;2023-07-30T07:22:25;99152.38;;;23.14;60.90
61742;BME280;47650;49.848;9.620;2023-07-30T07:24:51;99144.00;;;22.09;62.63
61742;BME280;47650;49.848;9.620;2023-07-30T07:27:21;99168.63;;;22.90;60.46
61742;BME280;47650;49.848;9.620;2023-07-30T07:29:49;99193.63;;;22.73;62.32
61742;BME280;47650;49.848;9.620;2023-07-30T07:32:15;99189.53;;;22.47;62.66
61742;BME280;47650;49.848;9.620;2023-07-30T07:34:41;99189.19;;;22.67;61.44
61742;BME280;47650;49.848;9.620;2023-07-30T07:37:10;99199.13;;;23.38;59.59
61742;BME280;47650;49.848;9.620;2023-07-30T07:39:35;99196.28;;;23.73;57.48
61742;BME280;47650;49.848;9.620;2023-07-30T07:42:02;99196.88;;;23.46;57.54
61742;BME280;47650;49.848;9.620;2023-07-30T07:44:27;99192.47;;;23.05;59.03
61742;BME280;47650;49.848;9.620;2023-07-30T07:46:54;99197.75;;;23.00;57.95
61742;BME280;47650;49.848;9.620;2023-07-30T07:49:19;99191.34;;;23.41;56.84
61742;BME280;47650;49.848;9.620;2023-07-30T07:51:46;99193.63;;;23.21;56.88
61742;BME280;47650;49.848;9.620;2023-07-30T07:54:12;99185.44;;;23.44;55.94
61742;BME280;47650;49.848;9.620;2023-07-30T07:56:39;99190.47;;;23.53;56.19
61742;BME280;47650;49.848;9.620;2023-07-30T07:59:04;99135.84;;;23.68;54.65
61742;BME280;47650;49.848;9.620;2023-07-30T08:01:31;99176.19;;;23.40;54.93
61742;BME280;47650;49.848;9.620;2023-07-30T08:03:56;99156.03;;;24.06;54.06
61742;BME280;47650;49.848;9.620;2023-07-30T08:06:21;99177.53;;;24.12;52.97
61742;BME280;47650;49.848;9.620;2023-07-30T08:08:47;99165.97;;;24.17;54.15
61742;BME280;47650;49.848;9.620;2023-07-30T08:11:12;99171.31;;;25.02;50.90
61742;BME280;47650;49.848;9.620;2023-07-30T08:13:37;99177.97;;;25.11;49.90
61742;BME280;47650;49.848;9.620;2023-07-30T08:16:04;99173.25;;;25.73;48.09
61742;BME280;47650;49.848;9.620;2023-07-30T08:18:30;99171.75;;;25.32;46.99
61742;BME280;47650;49.848;9.620;2023-07-30T08:20:55;99171.75;;;25.82;46.43
61742;BME280;47650;49.848;9.620;2023-07-30T08:23:20;99152.13;;;26.34;45.54
61742;BME280;47650;49.848;9.620;2023-07-30T08:25:46;99150.63;;;26.91;45.85
61742;BME280;47650;49.848;9.620;2023-07-30T08:28:11;99139.97;;;27.48;43.39
61742;BME280;47650;49.848;9.620;2023-07-30T08:30:38;99142.22;;;26.55;44.22
61742;BME280;47650;49.848;9.620;2023-07-30T08:33:04;99173.16;;;25.18;47.89
61742;BME280;47650;49.848;9.620;2023-07-30T08:35:29;99140.31;;;25.91;46.21
61742;BME280;47650;49.848;9.620;2023-07-30T08:37:54;99149.19;;;27.31;43.60
61742;BME280;47650;49.848;9.620;2023-07-30T08:40:24;99138.28;;;26.78;44.84
61742;BME280;47650;49.848;9.620;2023-07-30T08:42:53;99144.66;;;27.68;43.89
61742;BME280;47650;49.848;9.620;2023-07-30T08:45:19;99147.97;;;27.07;44.43
61742;BME280;47650;49.848;9.620;2023-07-30T08:47:45;99156.97;;;27.12;44.95
61742;BME280;47650;49.848;9.620;2023-07-30T08:50:11;99155.38;;;27.21;44.31
61742;BME280;47650;49.848;9.620;2023-07-30T08:52:37;99123.91;;;26.03;45.68
61742;BME280;47650;49.848;9.620;2023-07-30T08:55:03;99162.13;;;25.47;47.96
61742;BME280;47650;49.848;9.620;2023-07-30T08:57:29;99165.69;;;25.75;48.76
61742;BME280;47650;49.848;9.620;2023-07-30T09:00:06;99176.56;;;24.52;51.34
61742;BME280;47650;49.848;9.620;2023-07-30T09:02:44;99186.81;;;24.16;54.63
61742;BME280;47650;49.848;9.620;2023-07-30T09:05:12;99207.53;;;22.65;62.70
61742;BME280;47650;49.848;9.620;2023-07-30T09:07:38;99188.25;;;21.29;77.66
61742;BME280;47650;49.848;9.620;2023-07-30T09:10:03;99214.78;;;20.38;77.80
61742;BME280;47650;49.848;9.620;2023-07-30T09:12:32;99243.47;;;19.87;82.28
61742;BME280;47650;49.848;9.620;2023-07-30T09:15:04;99252.16;;;19.30;85.28
61742;BME280;47650;49.848;9.620;2023-07-30T09:17:30;99244.63;;;19.59;87.27
61742;BME280;47650;49.848;9.620;2023-07-30T09:19:55;99240.44;;;19.63;86.92
61742;BME280;47650;49.848;9.620;2023-07-30T09:22:29;99222.34;;;19.45;86.59
61742;BME280;47650;49.848;9.620;2023-07-30T09:24:57;99230.84;;;19.87;88.89
61742;BME280;47650;49.848;9.620;2023-07-30T09:27:24;99216.38;;;19.88;85.88
61742;BME280;47650;49.848;9.620;2023-07-30T09:29:53;99226.59;;;20.05;83.98
61742;BME280;47650;49.848;9.620;2023-07-30T09:32:18;99214.78;;;20.38;84.35
61742;BME280;47650;49.848;9.620;2023-07-30T09:34:44;99230.78;;;20.58;81.02
61742;BME280;47650;49.848;9.620;2023-07-30T09:37:12;99230.19;;;21.43;84.46
61742;BME280;47650;49.848;9.620;2023-07-30T09:39:38;99222.84;;;21.69;74.55
61742;BME280;47650;49.848;9.620;2023-07-30T09:42:05;99211.75;;;23.61;74.77
61742;BME280;47650;49.848;9.620;2023-07-30T09:44:32;99194.88;;;23.82;68.74
61742;BME280;47650;49.848;9.620;2023-07-30T09:46:58;99203.00;;;24.28;67.08
61742;BME280;47650;49.848;9.620;2023-07-30T09:49:23;99202.00;;;24.34;65.38
61742;BME280;47650;49.848;9.620;2023-07-30T09:51:50;99219.66;;;24.37;65.89
61742;BME280;47650;49.848;9.620;2023-07-30T09:54:16;99179.31;;;24.91;65.29
61742;BME280;47650;49.848;9.620;2023-07-30T09:56:42;99212.00;;;25.02;64.41
61742;BME280;47650;49.848;9.620;2023-07-30T09:59:08;99194.44;;;25.70;65.39
61742;BME280;47650;49.848;9.620;2023-07-30T10:01:40;99198.75;;;24.83;63.72
61742;BME280;47650;49.848;9.620;2023-07-30T10:04:08;99193.53;;;25.21;63.80
61742;BME280;47650;49.848;9.620;2023-07-30T10:07:04;99147.56;;;25.53;59.94
61742;BME280;47650;49.848;9.620;2023-07-30T10:09:34;99185.69;;;26.18;60.11
61742;BME280;47650;49.848;9.620;2023-07-30T10:12:04;99189.88;;;25.76;57.20
61742;BME280;47650;49.848;9.620;2023-07-30T10:14:34;99184.06;;;26.17;58.52
61742;BME280;47650;49.848;9.620;2023-07-30T10:17:01;99187.50;;;25.58;58.28
61742;BME280;47650;49.848;9.620;2023-07-30T10:19:28;99186.06;;;25.50;55.90
61742;BME280;47650;49.848;9.620;2023-07-30T10:25:02;99183.91;;;26.01;55.05
61742;BME280;47650;49.848;9.620;2023-07-30T10:27:41;99176.66;;;26.44;55.07
61742;BME280;47650;49.848;9.620;2023-07-30T10:30:13;99138.78;;;26.65;53.50
61742;BME280;47650;49.848;9.620;2023-07-30T10:32:58;99176.47;;;25.64;54.74
61742;BME280;47650;49.848;9.620;2023-07-30T10:35:42;99169.59;;;25.12;56.05
61742;BME280;47650;49.848;9.620;2023-07-30T10:38:21;99171.50;;;25.17;56.61
61742;BME280;47650;49.848;9.620;2023-07-30T10:41:03;99187.44;;;23.49;57.05
61742;BME280;47650;49.848;9.620;2023-07-30T10:43:30;99203.53;;;22.91;60.84
61742;BME280;47650;49.848;9.620;2023-07-30T10:45:56;99190.06;;;23.32;58.43
61742;BME280;47650;49.848;9.620;2023-07-30T10:48:34;99181.03;;;23.96;58.11
61742;BME280;47650;49.848;9.620;2023-07-30T10:51:02;99166.81;;;25.07;52.17
61742;BME280;47650;49.848;9.620;2023-07-30T10:53:27;99154.72;;;26.99;46.85
61742;BME280;47650;49.848;9.620;2023-07-30T10:55:53;99188.09;;;25.21;49.78
61742;BME280;47650;49.848;9.620;2023-07-30T10:58:20;99195.16;;;25.39;50.25
61742;BME280;47650;49.848;9.620;2023-07-30T11:00:45;99195.66;;;24.96;50.30
61742;BME280;47650;49.848;9.620;2023-07-30T11:03:11;99205.53;;;25.69;49.36
61742;BME280;47650;49.848;9.620;2023-07-30T11:05:39;99224.81;;;24.21;50.91
61742;BME280;47650;49.848;9.620;2023-07-30T11:08:05;99204.44;;;26.19;44.55
61742;BME280;47650;49.848;9.620;2023-07-30T11:10:30;99220.31;;;27.02;40.99
61742;BME280;47650;49.848;9.620;2023-07-30T11:12:58;99228.75;;;26.04;41.75
61742;BME280;47650;49.848;9.620;2023-07-30T11:15:24;99230.03;;;24.40;45.37
61742;BME280;47650;49.848;9.620;2023-07-30T11:17:51;99248.53;;;23.33;48.98
61742;BME280;47650;49.848;9.620;2023-07-30T11:20:26;99234.31;;;23.26;50.22
61742;BME280;47650;49.848;9.620;2023-07-30T11:22:53;99259.94;;;22.88;52.11
61742;BME280;47650;49.848;9.620;2023-07-30T11:25:19;99245.72;;;23.16;51.96
61742;BME280;47650;49.848;9.620;2023-07-30T11:27:48;99251.00;;;23.23;51.96
61742;BME280;47650;49.848;9.620;2023-07-30T11:30:14;99245.97;;;24.08;50.61
61742;BME280;47650;49.848;9.620;2023-07-30T11:32:41;99250.28;;;23.92;50.96
61742;BME280;47650;49.848;9.620;2023-07-30T11:35:07;99258.50;;;23.44;50.93
61742;BME280;47650;49.848;9.620;2023-07-30T11:37:33;99252.91;;;25.00;46.79
61742;BME280;47650;49.848;9.620;2023-07-30T11:39:59;99262.63;;;23.35;48.90
61742;BME280;47650;49.848;9.620;2023-07-30T11:42:26;99256.75;;;26.04;44.35
61742;BME280;47650;49.848;9.620;2023-07-30T11:44:56;99261.19;;;27.61;40.01
61742;BME280;47650;49.848;9.620;2023-07-30T11:47:22;99249.41;;;28.54;38.70
61742;BME280;47650;49.848;9.620;2023-07-30T11:49:57;99267.41;;;27.03;40.77
61742;BME280;47650;49.848;9.620;2023-07-30T11:52:23;99269.22;;;27.35;40.55
61742;BME280;47650;49.848;9.620;2023-07-30T11:54:48;99262.53;;;28.73;36.85
61742;BME280;47650;49.848;9.620;2023-07-30T11:57:34;99247.38;;;30.47;34.68
61742;BME280;47650;49.848;9.620;2023-07-30T12:00:02;99263.59;;;29.88;34.18
61742;BME280;47650;49.848;9.620;2023-07-30T12:02:29;99263.03;;;29.05;34.39
61742;BME280;47650;49.848;9.620;2023-07-30T12:04:54;99261.69;;;29.94;33.57
61742;BME280;47650;49.848;9.620;2023-07-30T12:07:24;99273.28;;;27.90;35.79
61742;BME280;47650;49.848;9.620;2023-07-30T12:09:50;99274.53;;;28.61;34.50
61742;BME280;47650;49.848;9.620;2023-07-30T12:12:15;99287.56;;;27.50;35.66
61742;BME280;47650;49.848;9.620;2023-07-30T12:17:16;99271.94;;;27.30;36.78
61742;BME280;47650;49.848;9.620;2023-07-30T12:19:42;99275.09;;;26.19;37.87
61742;BME280;47650;49.848;9.620;2023-07-30T12:22:08;99269.75;;;26.89;36.90
61742;BME280;47650;49.848;9.620;2023-07-30T12:24:33;99281.66;;;27.73;36.16
61742;BME280;47650;49.848;9.620;2023-07-30T12:26:58;99287.28;;;28.20;35.61
61742;BME280;47650;49.848;9.620;2023-07-30T12:29:24;99282.50;;;27.74;35.57
61742;BME280;47650;49.848;9.620;2023-07-30T12:31:50;99281.28;;;29.36;33.93
61742;BME280;47650;49.848;9.620;2023-07-30T12:34:18;99233.59;;;28.72;34.45
61742;BME280;47650;49.848;9.620;2023-07-30T12:36:44;99259.66;;;30.10;33.49
61742;BME280;47650;49.848;9.620;2023-07-30T12:39:09;99275.56;;;29.32;33.54
61742;BME280;47650;49.848;9.620;2023-07-30T12:41:34;99301.19;;;28.33;33.79
61742;BME280;47650;49.848;9.620;2023-07-30T12:44:00;99291.59;;;30.19;31.68
61742;BME280;47650;49.848;9.620;2023-07-30T12:46:26;99284.72;;;29.67;31.28
61742;BME280;47650;49.848;9.620;2023-07-30T12:48:55;99296.78;;;29.61;31.20
61742;BME280;47650;49.848;9.620;2023-07-30T12:51:23;99282.16;;;28.59;32.19
61742;BME280;47650;49.848;9.620;2023-07-30T12:53:51;99304.53;;;28.77;31.81
61742;BME280;47650;49.848;9.620;2023-07-30T12:56:17;99297.97;;;28.98;32.63
61742;BME280;47650;49.848;9.620;2023-07-30T12:58:43;99295.75;;;28.33;33.85
61742;BME280;47650;49.848;9.620;2023-07-30T13:01:08;99316.56;;;26.10;37.24
61742;BME280;47650;49.848;9.620;2023-07-30T13:03:34;99337.75;;;25.68;37.13
61742;BME280;47650;49.848;9.620;2023-07-30T13:05:59;99324.78;;;27.39;33.63